createdAt,value
2019-04-25T00:00:48.302Z,96694.00
2019-04-25T00:03:22.336Z,96680.00
2019-04-25T00:05:53.827Z,96681.00
2019-04-25T00:08:25.033Z,96694.00
2019-04-25T00:10:56.290Z,96684.00
2019-04-25T00:13:27.979Z,96680.00
2019-04-25T00:15:59.138Z,96674.00
2019-04-25T00:18:31.877Z,96671.00
2019-04-25T00:21:12.181Z,96662.00
2019-04-25T00:23:45.975Z,96676.00
2019-04-25T00:26:27.339Z,96667.00
2019-04-25T00:28:59.947Z,96671.00
2019-04-25T00:31:31.882Z,96677.00
2019-04-25T00:34:03.245Z,96679.00
2019-04-25T00:36:34.631Z,96680.00
2019-04-25T00:39:07.715Z,96688.00
2019-04-25T00:41:39.512Z,96691.00
2019-04-25T00:44:12.151Z,96687.00
2019-04-25T00:46:47.671Z,96696.00
2019-04-25T00:49:16.899Z,96694.00
2019-04-25T00:51:48.332Z,96701.00
2019-04-25T00:54:19.690Z,96709.00
2019-04-25T00:56:52.742Z,96717.00
2019-04-25T00:59:32.040Z,96718.00
2019-04-25T01:02:31.551Z,96728.00
2019-04-25T01:05:04.809Z,96720.00
2019-04-25T01:07:36.181Z,96729.00
2019-04-25T01:10:09.334Z,96753.00
2019-04-25T01:12:41.714Z,96748.00
2019-04-25T01:15:14.658Z,96747.00
2019-04-25T01:17:46.966Z,96747.00
2019-04-25T01:20:18.412Z,96741.00
2019-04-25T01:22:49.568Z,96741.00
2019-04-25T01:25:20.986Z,96745.00
2019-04-25T01:27:53.923Z,96746.00
2019-04-25T01:30:27.660Z,96740.00
2019-04-25T01:32:58.945Z,96734.00
2019-04-25T01:35:43.109Z,96731.00
2019-04-25T01:38:41.283Z,96753.00
2019-04-25T01:41:30.630Z,96755.00
2019-04-25T01:44:10.556Z,96760.00
2019-04-25T01:46:44.218Z,96756.00
2019-04-25T01:49:15.619Z,96773.00
2019-04-25T01:51:48.823Z,96763.00
2019-04-25T01:54:20.264Z,96766.00
2019-04-25T01:56:51.537Z,96763.00
2019-04-25T01:59:23.752Z,96770.00
2019-04-25T02:01:56.790Z,96780.00
2019-04-25T02:04:28.286Z,96780.00
2019-04-25T02:06:59.658Z,96769.00
2019-04-25T02:09:31.323Z,96760.00
2019-04-25T02:12:30.832Z,96768.00
2019-04-25T02:15:05.903Z,96769.00
2019-04-25T02:17:36.048Z,96781.00
2019-04-25T02:20:07.856Z,96780.00
2019-04-25T02:22:39.545Z,96781.00
2019-04-25T02:25:10.817Z,96782.00
2019-04-25T02:27:42.260Z,96785.00
2019-04-25T02:30:15.626Z,96778.00
2019-04-25T02:32:48.315Z,96781.00
2019-04-25T02:35:20.457Z,96771.00
2019-04-25T02:37:52.081Z,96778.00
2019-04-25T02:40:24.045Z,96795.00
2019-04-25T02:42:57.330Z,96782.00
2019-04-25T02:45:51.289Z,96788.00
2019-04-25T02:48:48.018Z,96798.00
2019-04-25T02:51:29.161Z,96800.00
2019-04-25T02:54:01.802Z,96804.00
2019-04-25T02:56:35.835Z,96796.00
2019-04-25T02:59:09.052Z,96798.00
2019-04-25T03:01:40.288Z,96797.00
2019-04-25T03:04:11.690Z,96794.00
2019-04-25T03:06:45.303Z,96798.00
2019-04-25T03:09:16.871Z,96799.00
2019-04-25T03:11:48.188Z,96796.00
2019-04-25T03:14:19.504Z,96790.00
2019-04-25T03:16:50.987Z,96785.00
2019-04-25T03:19:40.437Z,96795.00
2019-04-25T03:22:15.039Z,96800.00
2019-04-25T03:24:46.983Z,96806.00
2019-04-25T03:27:18.301Z,96809.00
2019-04-25T03:29:49.997Z,96808.00
2019-04-25T03:32:21.337Z,96798.00
2019-04-25T03:34:53.133Z,96805.00
2019-04-25T03:37:25.975Z,96799.00
2019-04-25T03:39:58.366Z,96812.00
2019-04-25T03:42:30.003Z,96798.00
2019-04-25T03:45:01.765Z,96817.00
2019-04-25T03:47:33.289Z,96810.00
2019-04-25T03:50:06.099Z,96821.00
2019-04-25T03:52:38.878Z,96812.00
2019-04-25T03:55:10.536Z,96834.00
2019-04-25T03:57:41.902Z,96828.00
2019-04-25T04:00:14.528Z,96837.00
2019-04-25T04:02:46.018Z,96837.00
2019-04-25T04:05:17.362Z,96836.00
2019-04-25T04:07:48.589Z,96840.00
2019-04-25T04:10:21.247Z,96844.00
2019-04-25T04:12:54.273Z,96842.00
2019-04-25T04:15:26.041Z,96826.00
2019-04-25T04:18:28.635Z,96839.00
2019-04-25T04:21:17.473Z,96837.00
2019-04-25T04:23:54.471Z,96844.00
2019-04-25T04:26:26.811Z,96842.00
2019-04-25T04:28:58.511Z,96860.00
2019-04-25T04:31:31.331Z,96841.00
2019-04-25T04:34:03.788Z,96851.00
2019-04-25T04:36:35.640Z,96861.00
2019-04-25T04:39:09.060Z,96870.00
2019-04-25T04:41:41.284Z,96871.00
2019-04-25T04:44:14.321Z,96870.00
2019-04-25T04:46:46.418Z,96869.00
2019-04-25T04:49:18.468Z,96871.00
2019-04-25T04:51:49.948Z,96871.00
2019-04-25T04:54:23.079Z,96874.00
2019-04-25T04:56:54.413Z,96878.00
2019-04-25T04:59:26.535Z,96876.00
2019-04-25T05:02:24.423Z,96888.00
2019-04-25T05:05:17.922Z,96881.00
2019-04-25T05:07:55.844Z,96890.00
2019-04-25T05:10:27.342Z,96891.00
2019-04-25T05:12:58.998Z,96893.00
2019-04-25T05:15:30.370Z,96897.00
2019-04-25T05:18:03.929Z,96899.00
2019-04-25T05:20:35.606Z,96900.00
2019-04-25T05:23:08.922Z,96905.00
2019-04-25T05:25:40.635Z,96908.00
2019-04-25T05:28:13.131Z,96925.00
2019-04-25T05:30:56.420Z,96919.00
2019-04-25T05:33:27.700Z,96924.00
2019-04-25T05:36:00.082Z,96924.00
2019-04-25T05:38:33.170Z,96924.00
2019-04-25T05:41:15.808Z,96925.00
2019-04-25T05:43:48.994Z,96941.00
2019-04-25T05:46:21.068Z,96927.00
2019-04-25T05:48:53.770Z,96931.00
2019-04-25T05:51:25.924Z,96939.00
2019-04-25T05:53:57.353Z,96931.00
2019-04-25T05:56:28.662Z,96937.00
2019-04-25T05:59:00.185Z,96944.00
2019-04-25T06:01:31.519Z,96944.00
2019-04-25T06:04:03.636Z,96943.00
2019-04-25T06:06:36.866Z,96948.00
2019-04-25T06:09:28.085Z,96950.00
2019-04-25T06:12:08.825Z,96941.00
2019-04-25T06:14:40.209Z,96959.00
2019-04-25T06:17:15.584Z,96958.00
2019-04-25T06:19:53.389Z,96949.00
2019-04-25T06:22:31.471Z,96957.00
2019-04-25T06:25:12.504Z,96954.00
2019-04-25T06:27:56.497Z,96958.00
2019-04-25T06:30:24.898Z,96958.00
2019-04-25T06:32:56.862Z,96955.00
2019-04-25T06:35:28.200Z,96966.00
2019-04-25T06:37:59.727Z,96970.00
2019-04-25T06:40:31.311Z,96978.00
2019-04-25T06:43:03.473Z,96975.00
2019-04-25T06:45:55.405Z,96985.00
2019-04-25T06:48:58.160Z,96983.00
2019-04-25T06:51:47.356Z,96988.00
2019-04-25T06:54:18.711Z,96984.00
2019-04-25T06:56:50.061Z,96982.00
2019-04-25T06:59:23.031Z,96986.00
2019-04-25T07:01:56.191Z,96993.00
2019-04-25T07:04:29.159Z,96982.00
2019-04-25T07:07:10.616Z,96982.00
2019-04-25T07:09:34.907Z,96983.00
2019-04-25T07:12:07.057Z,96983.00
2019-04-25T07:14:39.208Z,96979.00
2019-04-25T07:17:10.512Z,96985.00
2019-04-25T07:19:43.721Z,96982.00
2019-04-25T07:22:15.957Z,96984.00
2019-04-25T07:24:47.372Z,96983.00
2019-04-25T07:27:34.066Z,96984.00
2019-04-25T07:30:31.944Z,96987.00
2019-04-25T07:33:03.817Z,96990.00
2019-04-25T07:35:35.760Z,97003.00
2019-04-25T07:38:07.599Z,96996.00
2019-04-25T07:40:38.924Z,96993.00
2019-04-25T07:43:10.545Z,96990.00
2019-04-25T07:45:43.512Z,97000.00
2019-04-25T07:48:14.935Z,96991.00
2019-04-25T07:50:46.250Z,96991.00
2019-04-25T07:53:18.143Z,96987.00
2019-04-25T07:55:49.359Z,96987.00
2019-04-25T07:58:20.838Z,96993.00
2019-04-25T08:00:53.974Z,96990.00
2019-04-25T08:03:25.350Z,96985.00
2019-04-25T08:05:56.962Z,96980.00
2019-04-25T08:08:28.235Z,96985.00
2019-04-25T08:11:06.946Z,96980.00
2019-04-25T08:13:44.637Z,96983.00
2019-04-25T08:16:17.837Z,96983.00
2019-04-25T08:18:51.435Z,96983.00
2019-04-25T08:21:24.276Z,96979.00
2019-04-25T08:23:57.230Z,96983.00
2019-04-25T08:26:29.433Z,96989.00
2019-04-25T08:29:00.779Z,96983.00
2019-04-25T08:31:34.599Z,96977.00
2019-04-25T08:34:05.322Z,96979.00
2019-04-25T08:36:38.528Z,96981.00
2019-04-25T08:39:11.642Z,96986.00
2019-04-25T08:41:45.377Z,96983.00
2019-04-25T08:44:15.888Z,96984.00
2019-04-25T08:46:48.750Z,96993.00
2019-04-25T08:49:39.927Z,96987.00
2019-04-25T08:52:13.130Z,96988.00
2019-04-25T08:55:10.098Z,96990.00
2019-04-25T08:58:13.778Z,96984.00
2019-04-25T09:01:09.914Z,96992.00
2019-04-25T09:03:47.711Z,97003.00
2019-04-25T09:06:19.185Z,96973.00
2019-04-25T09:08:50.473Z,96980.00
2019-04-25T09:11:22.098Z,96979.00
2019-04-25T09:13:54.828Z,96976.00
2019-04-25T09:16:26.054Z,96973.00
2019-04-25T09:18:57.729Z,96978.00
2019-04-25T09:21:29.188Z,96986.00
2019-04-25T09:24:00.393Z,96979.00
2019-04-25T09:26:31.979Z,96967.00
2019-04-25T09:29:16.001Z,96961.00
2019-04-25T09:31:37.583Z,96961.00
2019-04-25T09:34:10.222Z,96963.00
2019-04-25T09:36:43.582Z,96963.00
2019-04-25T09:39:39.966Z,96958.00
2019-04-25T09:42:14.134Z,96954.00
2019-04-25T09:45:10.281Z,96960.00
2019-04-25T09:47:44.392Z,96956.00
2019-04-25T09:50:34.044Z,96946.00
2019-04-25T09:53:05.393Z,96955.00
2019-04-25T09:55:55.850Z,96947.00
2019-04-25T09:58:40.082Z,96937.00
2019-04-25T10:01:14.099Z,96947.00
2019-04-25T10:03:45.783Z,96944.00
2019-04-25T10:06:19.781Z,96945.00
2019-04-25T10:08:51.130Z,96936.00
2019-04-25T10:11:23.721Z,96925.00
2019-04-25T10:14:06.357Z,96939.00
2019-04-25T10:16:37.953Z,96931.00
2019-04-25T10:19:10.391Z,96929.00
2019-04-25T10:21:41.927Z,96934.00
2019-04-25T10:24:13.635Z,96925.00
2019-04-25T10:26:45.452Z,96936.00
2019-04-25T10:29:18.070Z,96936.00
2019-04-25T10:31:49.270Z,96928.00
2019-04-25T10:34:20.848Z,96929.00
2019-04-25T10:36:53.279Z,96928.00
2019-04-25T10:39:25.436Z,96927.00
2019-04-25T10:41:57.241Z,96916.00
2019-04-25T10:44:29.013Z,96914.00
2019-04-25T10:47:00.303Z,96917.00
2019-04-25T10:49:31.688Z,96914.00
2019-04-25T10:52:02.956Z,96913.00
2019-04-25T10:54:35.221Z,96908.00
2019-04-25T10:57:06.959Z,96898.00
2019-04-25T10:59:38.264Z,96891.00
2019-04-25T11:02:11.099Z,96895.00
2019-04-25T11:04:48.826Z,96898.00
2019-04-25T11:07:20.960Z,96890.00
2019-04-25T11:09:53.926Z,96898.00
2019-04-25T11:12:25.325Z,96901.00
2019-04-25T11:14:56.622Z,96880.00
2019-04-25T11:17:27.924Z,96885.00
2019-04-25T11:19:59.548Z,96882.00
2019-04-25T11:22:31.062Z,96881.00
2019-04-25T11:25:02.743Z,96880.00
2019-04-25T11:27:34.324Z,96880.00
2019-04-25T11:30:10.753Z,96880.00
2019-04-25T11:32:40.211Z,96875.00
2019-04-25T11:35:11.454Z,96871.00
2019-04-25T11:37:43.186Z,96871.00
2019-04-25T11:40:24.313Z,96870.00
2019-04-25T11:42:55.642Z,96868.00
2019-04-25T11:45:27.259Z,96863.00
2019-04-25T11:47:58.670Z,96859.00
2019-04-25T11:50:30.102Z,96856.00
2019-04-25T11:53:03.007Z,96863.00
2019-04-25T11:55:34.769Z,96858.00
2019-04-25T11:58:06.407Z,96867.00
2019-04-25T12:00:37.756Z,96859.00
2019-04-25T12:03:09.214Z,96861.00
2019-04-25T12:05:40.541Z,96847.00
2019-04-25T12:08:13.412Z,96846.00
2019-04-25T12:10:45.797Z,96842.00
2019-04-25T12:13:17.899Z,96836.00
2019-04-25T12:15:49.854Z,96835.00
2019-04-25T12:18:21.072Z,96834.00
2019-04-25T12:20:54.861Z,96837.00
2019-04-25T12:23:26.008Z,96828.00
2019-04-25T12:25:57.639Z,96824.00
2019-04-25T12:28:29.092Z,96823.00
2019-04-25T12:31:00.705Z,96823.00
2019-04-25T12:33:32.597Z,96820.00
2019-04-25T12:36:04.113Z,96815.00
2019-04-25T12:38:35.597Z,96815.00
2019-04-25T12:41:07.675Z,96816.00
2019-04-25T12:43:40.856Z,96812.00
2019-04-25T12:46:21.264Z,96813.00
2019-04-25T12:48:52.428Z,96805.00
2019-04-25T12:51:24.309Z,96803.00
2019-04-25T12:53:56.076Z,96796.00
2019-04-25T12:56:27.467Z,96805.00
2019-04-25T12:58:58.724Z,96797.00
2019-04-25T13:01:30.723Z,96803.00
2019-04-25T13:04:02.056Z,96791.00
2019-04-25T13:06:33.866Z,96793.00
2019-04-25T13:09:07.182Z,96785.00
2019-04-25T13:11:40.127Z,96775.00
2019-04-25T13:14:12.174Z,96765.00
2019-04-25T13:16:44.335Z,96760.00
2019-04-25T13:19:23.730Z,96762.00
2019-04-25T13:21:49.699Z,96764.00
2019-04-25T13:24:21.621Z,96759.00
2019-04-25T13:27:06.122Z,96757.00
2019-04-25T13:29:48.274Z,96749.00
2019-04-25T13:32:31.135Z,96746.00
2019-04-25T13:35:04.978Z,96752.00
2019-04-25T13:37:36.319Z,96756.00
2019-04-25T13:40:07.878Z,96745.00
2019-04-25T13:42:39.387Z,96757.00
2019-04-25T13:45:10.677Z,96741.00
2019-04-25T13:47:41.935Z,96755.00
2019-04-25T13:50:14.612Z,96740.00
2019-04-25T13:52:45.971Z,96744.00
2019-04-25T13:55:17.298Z,96746.00
2019-04-25T13:57:48.672Z,96735.00
2019-04-25T14:00:23.136Z,96726.00
2019-04-25T14:02:55.056Z,96725.00
2019-04-25T14:05:26.595Z,96730.00
2019-04-25T14:07:58.297Z,96729.00
2019-04-25T14:10:30.082Z,96725.00
2019-04-25T14:13:03.420Z,96724.00
2019-04-25T14:15:37.256Z,96725.00
2019-04-25T14:18:24.029Z,96714.00
2019-04-25T14:21:04.736Z,96714.00
2019-04-25T14:23:35.869Z,96712.00
2019-04-25T14:26:07.802Z,96708.00
2019-04-25T14:28:39.463Z,96707.00
2019-04-25T14:31:13.122Z,96713.00
2019-04-25T14:33:46.402Z,96710.00
2019-04-25T14:36:17.695Z,96701.00
2019-04-25T14:38:48.967Z,96701.00
2019-04-25T14:41:22.195Z,96699.00
2019-04-25T14:43:53.616Z,96697.00
2019-04-25T14:46:26.377Z,96692.00
2019-04-25T14:48:58.160Z,96690.00
2019-04-25T14:51:29.376Z,96692.00
2019-04-25T14:54:03.453Z,96697.00
2019-04-25T14:56:47.688Z,96703.00
2019-04-25T14:59:21.009Z,96693.00
2019-04-25T15:01:52.400Z,96690.00
2019-04-25T15:04:24.079Z,96689.00
2019-04-25T15:06:55.712Z,96689.00
2019-04-25T15:09:26.923Z,96697.00
2019-04-25T15:11:58.128Z,96687.00
2019-04-25T15:14:33.529Z,96683.00
2019-04-25T15:17:08.139Z,96686.00
2019-04-25T15:19:41.653Z,96688.00
2019-04-25T15:22:18.863Z,96683.00
2019-04-25T15:24:50.297Z,96685.00
2019-04-25T15:27:25.276Z,96689.00
2019-04-25T15:29:57.389Z,96680.00
2019-04-25T15:32:32.630Z,96679.00
2019-04-25T15:35:04.659Z,96673.00
2019-04-25T15:37:55.124Z,96669.00
2019-04-25T15:40:34.847Z,96668.00
2019-04-25T15:43:26.215Z,96673.00
2019-04-25T15:46:10.792Z,96675.00
2019-04-25T15:48:42.101Z,96675.00
2019-04-25T15:51:13.598Z,96670.00
2019-04-25T15:53:45.053Z,96672.00
2019-04-25T15:56:16.739Z,96680.00
2019-04-25T15:58:48.800Z,96677.00
2019-04-25T16:01:20.062Z,96671.00
2019-04-25T16:03:52.643Z,96672.00
2019-04-25T16:06:24.066Z,96667.00
2019-04-25T16:08:55.369Z,96668.00
2019-04-25T16:11:26.759Z,96668.00
2019-04-25T16:13:58.374Z,96664.00
2019-04-25T16:16:31.132Z,96670.00
2019-04-25T16:19:02.850Z,96661.00
2019-04-25T16:21:35.497Z,96663.00
2019-04-25T16:24:08.005Z,96661.00
2019-04-25T16:26:39.316Z,96660.00
2019-04-25T16:29:11.077Z,96662.00
2019-04-25T16:31:42.444Z,96650.00
2019-04-25T16:34:13.824Z,96653.00
2019-04-25T16:36:45.356Z,96656.00
2019-04-25T16:39:21.617Z,96651.00
2019-04-25T16:41:52.981Z,96656.00
2019-04-25T16:44:24.725Z,96658.00
2019-04-25T16:46:55.910Z,96652.00
2019-04-25T16:49:27.485Z,96654.00
2019-04-25T16:52:00.811Z,96652.00
2019-04-25T16:54:32.465Z,96652.00
2019-04-25T16:57:04.432Z,96650.00
2019-04-25T16:59:35.957Z,96646.00
2019-04-25T17:02:07.383Z,96653.00
2019-04-25T17:04:40.007Z,96644.00
2019-04-25T17:07:11.623Z,96655.00
2019-04-25T17:09:42.935Z,96637.00
2019-04-25T17:12:15.964Z,96637.00
2019-04-25T17:14:58.080Z,96641.00
2019-04-25T17:17:41.123Z,96633.00
2019-04-25T17:20:22.930Z,96635.00
2019-04-25T17:22:54.804Z,96630.00
2019-04-25T17:25:26.506Z,96637.00
2019-04-25T17:27:58.286Z,96631.00
2019-04-25T17:30:31.343Z,96619.00
2019-04-25T17:33:18.284Z,96629.00
2019-04-25T17:36:07.250Z,96611.00
2019-04-25T17:38:42.902Z,96621.00
2019-04-25T17:41:14.893Z,96622.00
2019-04-25T17:43:46.160Z,96619.00
2019-04-25T17:46:19.637Z,96627.00
2019-04-25T17:48:50.987Z,96622.00
2019-04-25T17:51:24.189Z,96623.00
2019-04-25T17:53:56.452Z,96616.00
2019-04-25T17:56:29.375Z,96615.00
2019-04-25T17:59:00.829Z,96616.00
2019-04-25T18:01:32.889Z,96614.00
2019-04-25T18:04:07.312Z,96618.00
2019-04-25T18:06:39.975Z,96611.00
2019-04-25T18:09:11.764Z,96616.00
2019-04-25T18:11:45.349Z,96613.00
2019-04-25T18:14:17.124Z,96619.00
2019-04-25T18:16:50.460Z,96608.00
2019-04-25T18:19:38.801Z,96602.00
2019-04-25T18:22:26.618Z,96607.00
2019-04-25T18:25:20.546Z,96606.00
2019-04-25T18:27:59.949Z,96619.00
2019-04-25T18:30:31.595Z,96613.00
2019-04-25T18:33:10.567Z,96625.00
2019-04-25T18:35:43.040Z,96611.00
2019-04-25T18:38:34.014Z,96618.00
2019-04-25T18:41:33.199Z,96614.00
2019-04-25T18:44:05.625Z,96612.00
2019-04-25T18:46:42.952Z,96621.00
2019-04-25T18:49:14.238Z,96622.00
2019-04-25T18:51:56.518Z,96625.00
2019-04-25T18:54:37.423Z,96619.00
2019-04-25T18:57:13.252Z,96617.00
2019-04-25T19:00:14.683Z,96621.00
2019-04-25T19:03:05.215Z,96634.00
2019-04-25T19:05:55.438Z,96625.00
2019-04-25T19:08:26.769Z,96631.00
2019-04-25T19:10:58.130Z,96622.00
2019-04-25T19:13:29.555Z,96620.00
2019-04-25T19:16:06.113Z,96619.00
2019-04-25T19:18:37.285Z,96616.00
2019-04-25T19:21:08.969Z,96616.00
2019-04-25T19:23:40.467Z,96616.00
2019-04-25T19:26:12.324Z,96619.00
2019-04-25T19:28:44.792Z,96621.00
2019-04-25T19:31:16.058Z,96619.00
2019-04-25T19:33:47.597Z,96617.00
2019-04-25T19:36:19.323Z,96610.00
2019-04-25T19:38:50.974Z,96613.00
2019-04-25T19:41:28.699Z,96612.00
2019-04-25T19:44:17.681Z,96613.00
2019-04-25T19:46:51.327Z,96618.00
2019-04-25T19:49:23.323Z,96601.00
2019-04-25T19:51:55.793Z,96596.00
2019-04-25T19:54:27.351Z,96598.00
2019-04-25T19:56:58.570Z,96598.00
2019-04-25T19:59:29.843Z,96604.00
2019-04-25T20:02:06.875Z,96599.00
2019-04-25T20:04:46.821Z,96592.00
2019-04-25T20:07:27.453Z,96604.00
2019-04-25T20:10:23.866Z,96593.00
2019-04-25T20:12:55.527Z,96591.00
2019-04-25T20:15:26.809Z,96582.00
2019-04-25T20:17:58.322Z,96585.00
2019-04-25T20:20:29.593Z,96581.00
2019-04-25T20:23:00.737Z,96576.00
2019-04-25T20:25:32.058Z,96580.00
2019-04-25T20:28:03.276Z,96581.00
2019-04-25T20:30:35.199Z,96576.00
2019-04-25T20:33:06.495Z,96577.00
2019-04-25T20:35:38.063Z,96578.00
2019-04-25T20:38:09.375Z,96572.00
2019-04-25T20:40:41.027Z,96566.00
2019-04-25T20:43:14.569Z,96563.00
2019-04-25T20:45:46.929Z,96567.00
2019-04-25T20:48:19.141Z,96559.00
2019-04-25T20:50:50.410Z,96563.00
2019-04-25T20:53:22.412Z,96568.00
2019-04-25T20:55:54.953Z,96576.00
2019-04-25T20:58:26.643Z,96570.00
2019-04-25T21:00:59.882Z,96574.00
2019-04-25T21:03:31.153Z,96561.00
2019-04-25T21:06:07.998Z,96573.00
2019-04-25T21:08:39.294Z,96569.00
2019-04-25T21:11:10.540Z,96559.00
2019-04-25T21:14:00.039Z,96560.00
2019-04-25T21:16:50.544Z,96564.00
2019-04-25T21:19:30.877Z,96546.00
2019-04-25T21:22:02.208Z,96564.00
2019-04-25T21:24:33.492Z,96560.00
2019-04-25T21:27:05.105Z,96558.00
2019-04-25T21:29:36.468Z,96559.00
2019-04-25T21:32:08.031Z,96555.00
2019-04-25T21:34:39.319Z,96564.00
2019-04-25T21:37:11.231Z,96560.00
2019-04-25T21:39:55.096Z,96556.00
2019-04-25T21:42:48.909Z,96549.00
2019-04-25T21:45:20.497Z,96549.00
2019-04-25T21:47:52.368Z,96544.00
2019-04-25T21:50:25.556Z,96543.00
2019-04-25T21:52:56.938Z,96537.00
2019-04-25T21:55:28.642Z,96539.00
2019-04-25T21:58:00.085Z,96536.00
2019-04-25T22:00:50.308Z,96541.00
2019-04-25T22:03:23.993Z,96534.00
2019-04-25T22:05:56.870Z,96537.00
2019-04-25T22:08:28.239Z,96540.00
2019-04-25T22:11:01.206Z,96540.00
2019-04-25T22:13:32.717Z,96536.00
2019-04-25T22:16:04.437Z,96538.00
2019-04-25T22:18:36.178Z,96544.00
2019-04-25T22:21:07.653Z,96532.00
2019-04-25T22:23:39.212Z,96540.00
2019-04-25T22:26:10.654Z,96539.00
2019-04-25T22:28:42.241Z,96542.00
2019-04-25T22:31:18.419Z,96548.00
2019-04-25T22:33:59.830Z,96534.00
2019-04-25T22:36:32.317Z,96543.00
2019-04-25T22:39:13.078Z,96540.00
2019-04-25T22:41:48.374Z,96536.00
2019-04-25T22:44:21.349Z,96530.00
2019-04-25T22:46:52.922Z,96537.00
2019-04-25T22:49:24.150Z,96539.00
2019-04-25T22:51:55.685Z,96531.00
2019-04-25T22:54:28.883Z,96522.00
2019-04-25T22:57:00.356Z,96528.00
2019-04-25T22:59:33.178Z,96521.00
2019-04-25T23:02:32.304Z,96525.00
2019-04-25T23:05:34.847Z,96530.00
2019-04-25T23:08:06.495Z,96524.00
2019-04-25T23:10:38.577Z,96520.00
2019-04-25T23:13:10.884Z,96517.00
2019-04-25T23:15:42.327Z,96523.00
2019-04-25T23:18:13.684Z,96522.00
2019-04-25T23:20:46.318Z,96521.00
2019-04-25T23:23:17.856Z,96533.00
2019-04-25T23:26:00.960Z,96524.00
2019-04-25T23:28:36.449Z,96525.00
2019-04-25T23:31:12.596Z,96522.00
2019-04-25T23:33:44.330Z,96525.00
2019-04-25T23:36:15.986Z,96532.00
2019-04-25T23:38:47.873Z,96517.00
2019-04-25T23:41:19.451Z,96527.00
2019-04-25T23:43:51.055Z,96523.00
2019-04-25T23:46:22.200Z,96531.00
2019-04-25T23:48:54.143Z,96528.00
2019-04-25T23:51:25.733Z,96519.00
2019-04-25T23:53:57.839Z,96521.00
2019-04-25T23:56:29.275Z,96526.00
2019-04-25T23:59:01.430Z,96537.00
